EmailTwitter


Observations de surface / Québec / LFRS

Régions: Québec | Canada | États-Unis | Europe | France | UK | Elsewhere
Station
Affichage
Infos & localisation pour LFRS | Aide pour décoder les METARs

Observations prises le 2017-05-30 à 13H00 UTC à NANTES/ATLANTIQU, FR (LFRS)

Etat du ciel: couvert.

Température: 20.0 Celsius

Point de rosée: 13.0 Celsius

Humidité relative: 64%

Vents: Variable à 6 km/h ou 3 noeuds.

Pression au niveau moyen de la mer: 102.00 kilopascals.

Visibilité horizontale: 6.21 milles terrestres ou 9.94 kilomètres.

Hauteur du plafond: 1524 mètres ( 5000 pieds ).

Observation METAR:

LFRS 301300Z AUTO VRB03KT 9999 FEW027 OVC050 20/13 Q1020 NOSIG=